createdAt,value
2023-04-23T00:01:42.630Z,1.85
2023-04-23T00:04:09.264Z,1.75
2023-04-23T00:06:36.204Z,1.80
2023-04-23T00:09:04.023Z,1.90
2023-04-23T00:11:30.764Z,1.40
2023-04-23T00:13:57.532Z,1.50
2023-04-23T00:16:24.716Z,1.38
2023-04-23T00:18:51.371Z,1.30
2023-04-23T00:21:17.872Z,1.33
2023-04-23T00:23:44.364Z,1.20
2023-04-23T00:26:10.761Z,0.90
2023-04-23T00:28:37.215Z,0.80
2023-04-23T00:31:03.776Z,0.60
2023-04-23T00:33:30.541Z,0.70
2023-04-23T00:35:56.986Z,0.70
2023-04-23T00:38:23.509Z,0.80
2023-04-23T00:40:50.028Z,0.70
2023-04-23T00:43:17.596Z,1.02
2023-04-23T00:45:44.391Z,0.52
2023-04-23T00:48:12.154Z,0.70
2023-04-23T00:50:38.682Z,0.60
2023-04-23T00:53:05.663Z,0.60
2023-04-23T00:55:33.062Z,0.77
2023-04-23T00:58:00.782Z,0.93
2023-04-23T01:00:27.638Z,0.60
2023-04-23T01:02:54.704Z,0.60
2023-04-23T01:05:23.429Z,0.60
2023-04-23T01:07:49.980Z,0.70
2023-04-23T01:10:17.223Z,0.63
2023-04-23T01:12:44.213Z,0.60
2023-04-23T01:15:10.886Z,0.70
2023-04-23T01:17:38.325Z,0.70
2023-04-23T01:20:06.510Z,0.40
2023-04-23T01:22:36.256Z,0.50
2023-04-23T01:25:03.846Z,0.50
2023-04-23T01:27:30.850Z,0.63
2023-04-23T01:29:58.220Z,0.60
2023-04-23T01:32:25.911Z,0.50
2023-04-23T01:34:55.661Z,0.60
2023-04-23T01:37:23.531Z,0.50
2023-04-23T01:39:49.955Z,0.80
2023-04-23T01:42:16.883Z,0.52
2023-04-23T01:44:44.196Z,0.52
2023-04-23T01:47:11.167Z,0.60
2023-04-23T01:49:37.913Z,0.55
2023-04-23T01:52:04.554Z,0.50
2023-04-23T01:54:31.116Z,0.75
2023-04-23T01:56:58.856Z,0.50
2023-04-23T01:59:25.288Z,0.57
2023-04-23T02:01:52.075Z,0.60
2023-04-23T02:04:18.980Z,0.43
2023-04-23T02:06:48.273Z,0.60
2023-04-23T02:09:14.857Z,0.63
2023-04-23T02:11:41.443Z,0.40
2023-04-23T02:14:09.560Z,0.40
2023-04-23T02:16:36.123Z,0.40
2023-04-23T02:19:02.608Z,0.60
2023-04-23T02:21:29.714Z,0.57
2023-04-23T02:23:56.256Z,0.77
2023-04-23T02:26:22.926Z,0.52
2023-04-23T02:28:49.462Z,0.70
2023-04-23T02:31:16.619Z,0.60
2023-04-23T02:33:44.338Z,0.40
2023-04-23T02:36:11.616Z,0.60
2023-04-23T02:38:41.460Z,0.50
2023-04-23T02:41:08.330Z,0.70
2023-04-23T02:43:34.803Z,0.50
2023-04-23T02:46:07.927Z,0.50
2023-04-23T02:48:39.527Z,0.73
2023-04-23T02:51:07.065Z,0.40
2023-04-23T02:53:33.694Z,0.40
2023-04-23T02:56:01.351Z,0.43
2023-04-23T02:58:28.012Z,0.50
2023-04-23T03:00:57.392Z,0.50
2023-04-23T03:03:26.625Z,0.47
2023-04-23T03:05:54.075Z,0.50
2023-04-23T03:08:20.755Z,0.45
2023-04-23T03:10:47.696Z,0.50
2023-04-23T03:13:14.769Z,0.60
2023-04-23T03:15:42.016Z,0.50
2023-04-23T03:18:08.679Z,0.40
2023-04-23T03:20:36.680Z,0.50
2023-04-23T03:23:06.261Z,0.45
2023-04-23T03:25:33.779Z,0.50
2023-04-23T03:28:00.306Z,0.40
2023-04-23T03:30:28.595Z,0.40
2023-04-23T03:32:56.731Z,0.50
2023-04-23T03:35:24.054Z,0.60
2023-04-23T03:37:52.755Z,0.50
2023-04-23T03:40:20.577Z,0.50
2023-04-23T03:42:50.016Z,0.50
2023-04-23T03:45:19.304Z,0.50
2023-04-23T03:47:46.103Z,0.60
2023-04-23T03:50:13.414Z,0.70
2023-04-23T03:52:42.148Z,0.50
2023-04-23T03:55:14.687Z,0.90
2023-04-23T03:57:44.984Z,0.60
2023-04-23T04:00:24.814Z,0.60
2023-04-23T04:02:51.385Z,0.63
2023-04-23T04:05:18.257Z,0.60
2023-04-23T04:07:45.705Z,0.50
2023-04-23T04:10:12.117Z,0.68
2023-04-23T04:12:38.620Z,0.70
2023-04-23T04:15:09.283Z,0.73
2023-04-23T04:17:35.732Z,0.70
2023-04-23T04:20:02.235Z,0.50
2023-04-23T04:22:29.411Z,0.60
2023-04-23T04:24:57.345Z,0.65
2023-04-23T04:27:23.903Z,0.77
2023-04-23T04:29:51.751Z,0.68
2023-04-23T04:32:19.079Z,0.50
2023-04-23T04:34:45.554Z,0.68
2023-04-23T04:37:12.850Z,0.47
2023-04-23T04:39:39.270Z,0.50
2023-04-23T04:42:07.286Z,0.50
2023-04-23T04:44:34.318Z,0.52
2023-04-23T04:47:00.809Z,0.60
2023-04-23T04:49:27.328Z,1.10
2023-04-23T04:51:54.231Z,1.10
2023-04-23T04:54:21.795Z,0.80
2023-04-23T04:56:48.280Z,0.60
2023-04-23T04:59:14.800Z,1.20
2023-04-23T05:01:41.367Z,3.05
2023-04-23T05:04:08.328Z,5.00
2023-04-23T05:06:35.008Z,2.63
2023-04-23T05:09:01.436Z,1.50
2023-04-23T05:11:28.039Z,1.60
2023-04-23T05:13:54.424Z,1.30
2023-04-23T05:16:21.215Z,1.20
2023-04-23T05:18:47.689Z,0.90
2023-04-23T05:21:15.722Z,1.30
2023-04-23T05:23:42.161Z,0.90
2023-04-23T05:26:08.618Z,0.88
2023-04-23T05:28:35.472Z,0.60
2023-04-23T05:31:01.953Z,0.60
2023-04-23T05:33:33.474Z,0.52
2023-04-23T05:36:06.113Z,0.60
2023-04-23T05:38:33.164Z,0.70
2023-04-23T05:40:59.662Z,0.80
2023-04-23T05:43:26.070Z,0.60
2023-04-23T05:45:52.715Z,0.70
2023-04-23T05:48:19.159Z,0.70
2023-04-23T05:50:45.623Z,0.68
2023-04-23T05:53:12.606Z,0.80
2023-04-23T05:55:39.266Z,0.70
2023-04-23T05:58:06.120Z,0.60
2023-04-23T06:00:32.609Z,0.55
2023-04-23T06:02:59.173Z,0.70
2023-04-23T06:05:25.766Z,0.93
2023-04-23T06:07:53.024Z,0.80
2023-04-23T06:10:19.477Z,0.88
2023-04-23T06:12:46.094Z,0.70
2023-04-23T06:15:12.600Z,0.80
2023-04-23T06:17:39.175Z,1.02
2023-04-23T06:20:06.400Z,0.93
2023-04-23T06:22:33.179Z,0.82
2023-04-23T06:24:59.620Z,0.82
2023-04-23T06:27:27.030Z,1.80
2023-04-23T06:29:57.297Z,0.98
2023-04-23T06:32:23.820Z,1.33
2023-04-23T06:35:00.235Z,1.42
2023-04-23T06:37:29.517Z,1.98
2023-04-23T06:39:56.513Z,1.20
2023-04-23T06:42:22.946Z,2.03
2023-04-23T06:45:10.150Z,1.30
2023-04-23T06:47:36.619Z,1.52
2023-04-23T06:50:03.279Z,1.95
2023-04-23T06:52:30.005Z,1.30
2023-04-23T06:54:56.414Z,1.55
2023-04-23T06:57:22.907Z,1.10
2023-04-23T06:59:49.320Z,1.42
2023-04-23T07:02:17.467Z,1.23
2023-04-23T07:04:44.439Z,1.15
2023-04-23T07:07:11.097Z,1.38
2023-04-23T07:09:37.518Z,1.17
2023-04-23T07:12:04.136Z,1.20
2023-04-23T07:14:30.571Z,1.83
2023-04-23T07:16:57.046Z,1.50
2023-04-23T07:19:23.454Z,1.55
2023-04-23T07:21:49.877Z,1.50
2023-04-23T07:24:16.632Z,1.90
2023-04-23T07:26:43.035Z,1.60
2023-04-23T07:29:11.220Z,1.40
2023-04-23T07:31:41.488Z,1.75
2023-04-23T07:34:08.966Z,1.50
2023-04-23T07:36:36.332Z,1.52
2023-04-23T07:39:02.939Z,1.80
2023-04-23T07:41:29.642Z,1.70
2023-04-23T07:43:56.517Z,1.38
2023-04-23T07:46:23.058Z,1.60
2023-04-23T07:48:49.560Z,1.80
2023-04-23T07:51:16.317Z,1.42
2023-04-23T07:53:42.758Z,1.50
2023-04-23T07:56:09.211Z,1.33
2023-04-23T07:58:35.672Z,1.50
2023-04-23T08:01:02.506Z,1.60
2023-04-23T08:03:29.317Z,1.60
2023-04-23T08:05:56.815Z,1.50
2023-04-23T08:08:23.263Z,1.50
2023-04-23T08:10:49.688Z,1.60
2023-04-23T08:13:16.203Z,1.70
2023-04-23T08:15:42.661Z,1.45
2023-04-23T08:18:09.094Z,1.40
2023-04-23T08:20:35.540Z,1.40
2023-04-23T08:23:02.104Z,1.73
2023-04-23T08:25:28.513Z,1.50
2023-04-23T08:27:54.974Z,1.48
2023-04-23T08:30:21.525Z,1.33
2023-04-23T08:32:51.030Z,1.40
2023-04-23T08:35:17.783Z,1.30
2023-04-23T08:37:44.241Z,1.38
2023-04-23T08:40:11.103Z,1.80
2023-04-23T08:42:52.924Z,1.50
2023-04-23T08:45:19.795Z,1.25
2023-04-23T08:47:46.289Z,1.02
2023-04-23T08:50:17.647Z,1.10
2023-04-23T08:52:50.667Z,1.15
2023-04-23T08:55:18.772Z,1.08
2023-04-23T08:57:47.034Z,0.90
2023-04-23T09:00:15.492Z,1.00
2023-04-23T09:02:44.799Z,0.90
2023-04-23T09:05:11.870Z,1.10
2023-04-23T09:07:38.663Z,1.05
2023-04-23T09:10:07.477Z,1.00
2023-04-23T09:12:35.936Z,0.98
2023-04-23T09:15:10.102Z,0.90
2023-04-23T09:17:41.046Z,1.10
2023-04-23T09:20:11.515Z,1.10
2023-04-23T09:22:55.181Z,1.00
2023-04-23T09:25:23.993Z,1.17
2023-04-23T09:27:51.895Z,1.02
2023-04-23T09:30:19.549Z,1.17
2023-04-23T09:32:46.950Z,0.90
2023-04-23T09:35:19.498Z,0.98
2023-04-23T09:37:52.425Z,0.93
2023-04-23T09:40:22.334Z,0.93
2023-04-23T09:42:50.582Z,0.90
2023-04-23T09:45:17.584Z,0.80
2023-04-23T09:47:52.211Z,0.93
2023-04-23T09:50:37.022Z,0.70
2023-04-23T09:53:04.805Z,1.00
2023-04-23T09:55:35.713Z,0.90
2023-04-23T09:58:04.465Z,0.93
2023-04-23T10:00:36.516Z,0.65
2023-04-23T10:03:04.088Z,1.17
2023-04-23T10:05:37.265Z,1.08
2023-04-23T10:08:13.710Z,1.00
2023-04-23T10:10:56.795Z,0.90
2023-04-23T10:13:28.323Z,0.90
2023-04-23T10:15:55.071Z,0.80
2023-04-23T10:18:21.721Z,0.77
2023-04-23T10:20:49.905Z,0.98
2023-04-23T10:23:19.448Z,0.88
2023-04-23T10:25:47.654Z,1.00
2023-04-23T10:28:17.094Z,0.80
2023-04-23T10:30:44.614Z,0.80
2023-04-23T10:33:22.392Z,0.70
2023-04-23T10:35:56.980Z,0.70
2023-04-23T10:38:28.091Z,1.00
2023-04-23T10:40:56.616Z,1.30
2023-04-23T10:43:23.989Z,1.13
2023-04-23T10:45:50.712Z,1.30
2023-04-23T10:48:17.226Z,1.08
2023-04-23T10:51:02.452Z,1.10
2023-04-23T10:53:31.966Z,1.08
2023-04-23T10:56:06.630Z,1.30
2023-04-23T10:58:50.397Z,0.90
2023-04-23T11:01:18.283Z,1.00
2023-04-23T11:03:45.370Z,1.02
2023-04-23T11:06:38.921Z,0.90
2023-04-23T11:09:27.825Z,1.10
2023-04-23T11:11:55.531Z,1.10
2023-04-23T11:14:34.556Z,0.93
2023-04-23T11:17:01.116Z,1.15
2023-04-23T11:19:27.545Z,0.93
2023-04-23T11:22:04.619Z,0.82
2023-04-23T11:24:42.535Z,0.88
2023-04-23T11:27:15.461Z,0.90
2023-04-23T11:29:44.923Z,0.90
2023-04-23T11:32:17.037Z,1.00
2023-04-23T11:34:44.963Z,1.10
2023-04-23T11:37:12.622Z,0.82
2023-04-23T11:39:41.417Z,0.98
2023-04-23T11:42:15.405Z,0.80
2023-04-23T11:44:44.376Z,0.90
2023-04-23T11:47:13.580Z,1.02
2023-04-23T11:49:42.683Z,0.98
2023-04-23T11:52:10.481Z,0.63
2023-04-23T11:54:36.984Z,0.93
2023-04-23T11:57:04.701Z,1.00
2023-04-23T11:59:31.249Z,0.80
2023-04-23T12:01:59.569Z,1.00
2023-04-23T12:04:28.571Z,0.52
2023-04-23T12:06:57.473Z,0.80
2023-04-23T12:09:26.352Z,0.80
2023-04-23T12:11:53.358Z,0.80
2023-04-23T12:14:28.553Z,0.80
2023-04-23T12:16:55.915Z,1.00
2023-04-23T12:19:28.334Z,0.88
2023-04-23T12:22:00.236Z,1.40
2023-04-23T12:24:29.125Z,1.00
2023-04-23T12:27:01.025Z,0.98
2023-04-23T12:29:30.274Z,0.70
2023-04-23T12:31:59.574Z,1.05
2023-04-23T12:34:26.128Z,0.90
2023-04-23T12:36:54.992Z,0.85
2023-04-23T12:39:31.679Z,0.70
2023-04-23T12:42:06.552Z,0.77
2023-04-23T12:44:35.312Z,0.80
2023-04-23T12:47:04.872Z,0.80
2023-04-23T12:49:32.904Z,0.90
2023-04-23T12:52:01.559Z,0.80
2023-04-23T12:54:32.989Z,0.88
2023-04-23T12:57:02.661Z,0.80
2023-04-23T12:59:29.440Z,0.70
2023-04-23T13:01:56.056Z,1.30
2023-04-23T13:04:22.563Z,0.80
2023-04-23T13:06:49.218Z,1.27
2023-04-23T13:09:15.699Z,1.10
2023-04-23T13:11:42.137Z,0.80
2023-04-23T13:14:09.504Z,0.98
2023-04-23T13:16:36.684Z,0.70
2023-04-23T13:19:03.173Z,1.10
2023-04-23T13:21:29.600Z,0.90
2023-04-23T13:23:56.899Z,0.82
2023-04-23T13:26:23.343Z,0.90
2023-04-23T13:28:49.777Z,1.20
2023-04-23T13:31:16.332Z,0.70
2023-04-23T13:33:42.876Z,1.08
2023-04-23T13:36:09.550Z,1.00
2023-04-23T13:38:36.318Z,1.10
2023-04-23T13:41:02.759Z,0.80
2023-04-23T13:43:29.172Z,0.95
2023-04-23T13:45:55.816Z,0.80
2023-04-23T13:48:28.471Z,1.05
2023-04-23T13:50:55.788Z,1.00
2023-04-23T13:53:22.605Z,1.05
2023-04-23T13:55:49.046Z,1.23
2023-04-23T13:58:15.539Z,0.90
2023-04-23T14:00:42.487Z,0.90
2023-04-23T14:03:09.041Z,1.35
2023-04-23T14:05:35.777Z,1.45
2023-04-23T14:08:02.223Z,1.90
2023-04-23T14:10:28.684Z,1.10
2023-04-23T14:12:55.546Z,1.73
2023-04-23T14:15:22.072Z,1.20
2023-04-23T14:17:49.145Z,1.40
2023-04-23T14:20:15.793Z,0.93
2023-04-23T14:22:42.747Z,1.10
2023-04-23T14:25:36.066Z,1.02
2023-04-23T14:28:16.739Z,0.98
2023-04-23T14:30:43.162Z,0.85
2023-04-23T14:33:09.667Z,1.00
2023-04-23T14:38:08.199Z,1.00
2023-04-23T14:40:34.590Z,0.95
2023-04-23T14:43:14.432Z,0.70
2023-04-23T14:45:41.789Z,1.10
2023-04-23T14:48:08.259Z,1.00
2023-04-23T14:50:34.710Z,1.40
2023-04-23T14:53:04.080Z,1.13
2023-04-23T14:55:30.854Z,0.90
2023-04-23T14:57:57.300Z,0.80
2023-04-23T15:00:23.786Z,0.90
2023-04-23T15:02:50.444Z,0.60
2023-04-23T15:05:16.979Z,1.20
2023-04-23T15:07:43.763Z,0.55
2023-04-23T15:10:11.564Z,0.75
2023-04-23T15:12:41.090Z,0.50
2023-04-23T15:15:48.197Z,0.55
2023-04-23T15:18:15.046Z,0.65
2023-04-23T15:20:42.400Z,0.70
2023-04-23T15:23:09.731Z,0.70
2023-04-23T15:25:36.856Z,0.68
2023-04-23T15:28:03.498Z,0.65
2023-04-23T15:30:30.119Z,0.80
2023-04-23T15:32:56.752Z,0.60
2023-04-23T15:35:24.176Z,0.70
2023-04-23T15:37:50.873Z,0.60
2023-04-23T15:40:17.388Z,0.60
2023-04-23T15:42:47.901Z,0.70
2023-04-23T15:45:14.493Z,0.82
2023-04-23T15:47:42.097Z,0.73
2023-04-23T15:50:10.099Z,0.77
2023-04-23T15:52:37.498Z,0.70
2023-04-23T15:55:04.838Z,0.70
2023-04-23T15:57:31.920Z,0.70
2023-04-23T15:59:58.553Z,0.70
2023-04-23T16:02:25.211Z,0.52
2023-04-23T16:04:51.885Z,0.70
2023-04-23T16:07:18.341Z,0.70
2023-04-23T16:09:45.147Z,0.68
2023-04-23T16:12:12.439Z,0.90
2023-04-23T16:14:39.857Z,0.80
2023-04-23T16:17:06.337Z,0.80
2023-04-23T16:19:32.856Z,1.08
2023-04-23T16:21:59.334Z,1.00
2023-04-23T16:24:25.743Z,1.00
2023-04-23T16:26:52.324Z,0.70
2023-04-23T16:29:22.678Z,0.80
2023-04-23T16:31:50.113Z,0.90
2023-04-23T16:34:16.855Z,0.70
2023-04-23T16:36:43.436Z,0.77
2023-04-23T16:39:10.054Z,0.90
2023-04-23T16:41:36.765Z,0.80
2023-04-23T16:44:03.308Z,0.90
2023-04-23T16:46:31.167Z,0.80
2023-04-23T16:48:58.012Z,0.77
2023-04-23T16:51:25.183Z,0.68
2023-04-23T16:53:52.483Z,1.17
2023-04-23T16:56:19.233Z,1.00
2023-04-23T16:58:45.820Z,0.90
2023-04-23T17:01:12.394Z,0.95
2023-04-23T17:03:39.434Z,0.63
2023-04-23T17:06:12.396Z,0.90
2023-04-23T17:08:38.974Z,0.90
2023-04-23T17:11:06.892Z,0.73
2023-04-23T17:13:34.664Z,0.80
2023-04-23T17:16:02.230Z,0.95
2023-04-23T17:18:29.045Z,0.70
2023-04-23T17:20:55.704Z,0.60
2023-04-23T17:23:22.303Z,0.70
2023-04-23T17:25:48.705Z,0.80
2023-04-23T17:28:15.318Z,0.60
2023-04-23T17:30:41.813Z,1.08
2023-04-23T17:33:08.272Z,1.00
2023-04-23T17:35:34.722Z,0.68
2023-04-23T17:38:01.176Z,0.93
2023-04-23T17:40:27.635Z,0.70
2023-04-23T17:42:54.032Z,0.75
2023-04-23T17:45:20.676Z,0.90
2023-04-23T17:47:47.168Z,0.70
2023-04-23T17:50:13.612Z,0.90
2023-04-23T17:52:44.072Z,0.90
2023-04-23T17:55:10.940Z,1.20
2023-04-23T17:57:37.482Z,1.00
2023-04-23T18:00:09.577Z,0.77
2023-04-23T18:02:41.855Z,1.10
2023-04-23T18:05:14.370Z,0.88
2023-04-23T18:07:42.154Z,1.17
2023-04-23T18:10:09.702Z,0.80
2023-04-23T18:12:36.230Z,1.02
2023-04-23T18:15:02.733Z,1.13
2023-04-23T18:17:29.205Z,0.90
2023-04-23T18:19:55.783Z,0.88
2023-04-23T18:22:22.213Z,0.80
2023-04-23T18:24:50.403Z,1.10
2023-04-23T18:27:17.437Z,0.70
2023-04-23T18:29:44.607Z,0.60
2023-04-23T18:32:15.864Z,1.10
2023-04-23T18:34:47.733Z,0.68
2023-04-23T18:37:31.818Z,0.65
2023-04-23T18:39:58.474Z,0.82
2023-04-23T18:42:24.959Z,0.60
2023-04-23T18:44:51.378Z,0.63
2023-04-23T18:47:18.954Z,0.70
2023-04-23T18:49:52.322Z,0.63
2023-04-23T18:52:18.720Z,0.50
2023-04-23T18:54:45.130Z,0.50
2023-04-23T18:57:11.540Z,0.63
2023-04-23T18:59:38.007Z,0.88
2023-04-23T19:02:05.326Z,0.60
2023-04-23T19:04:35.257Z,0.60
2023-04-23T19:07:02.005Z,0.57
2023-04-23T19:09:28.430Z,0.52
2023-04-23T19:11:55.390Z,0.60
2023-04-23T19:14:22.085Z,0.52
2023-04-23T19:16:50.861Z,0.60
2023-04-23T19:19:17.453Z,0.60
2023-04-23T19:21:43.895Z,0.70
2023-04-23T19:24:10.482Z,0.80
2023-04-23T19:26:36.903Z,0.60
2023-04-23T19:29:03.535Z,0.60
2023-04-23T19:31:30.675Z,1.00
2023-04-23T19:33:57.400Z,0.80
2023-04-23T19:36:23.885Z,0.60
2023-04-23T19:38:50.345Z,0.70
2023-04-23T19:41:16.815Z,0.60
2023-04-23T19:43:43.238Z,0.60
2023-04-23T19:46:09.722Z,0.70
2023-04-23T19:48:36.309Z,1.67
2023-04-23T19:51:02.707Z,1.13
2023-04-23T19:53:29.227Z,0.82
2023-04-23T19:55:55.692Z,0.73
2023-04-23T19:58:22.090Z,0.73
2023-04-23T20:00:48.656Z,0.50
2023-04-23T20:03:15.398Z,0.55
2023-04-23T20:05:44.605Z,0.57
2023-04-23T20:08:25.947Z,0.68
2023-04-23T20:10:53.337Z,0.70
2023-04-23T20:13:20.583Z,0.60
2023-04-23T20:15:49.837Z,0.70
2023-04-23T20:18:16.842Z,0.52
2023-04-23T20:20:43.403Z,0.50
2023-04-23T20:23:09.906Z,0.60
2023-04-23T20:25:36.555Z,0.60
2023-04-23T20:28:03.073Z,0.80
2023-04-23T20:30:29.499Z,0.70
2023-04-23T20:32:57.595Z,1.02
2023-04-23T20:35:24.216Z,1.10
2023-04-23T20:37:53.321Z,0.77
2023-04-23T20:40:19.897Z,0.88
2023-04-23T20:42:47.088Z,0.50
2023-04-23T20:45:14.251Z,0.60
2023-04-23T20:47:41.256Z,0.70
2023-04-23T20:50:08.559Z,0.70
2023-04-23T20:52:35.276Z,0.60
2023-04-23T20:55:01.882Z,0.88
2023-04-23T20:57:28.342Z,0.80
2023-04-23T20:59:54.745Z,0.75
2023-04-23T21:02:21.246Z,0.70
2023-04-23T21:04:47.771Z,0.80
2023-04-23T21:07:14.203Z,1.02
2023-04-23T21:09:40.905Z,0.60
2023-04-23T21:12:07.739Z,0.73
2023-04-23T21:14:34.210Z,0.70
2023-04-23T21:17:00.685Z,1.13
2023-04-23T21:19:27.165Z,0.60
2023-04-23T21:21:53.627Z,0.80
2023-04-23T21:24:20.410Z,0.60
2023-04-23T21:26:46.919Z,0.50
2023-04-23T21:29:13.400Z,0.52
2023-04-23T21:31:45.314Z,1.20
2023-04-23T21:34:11.887Z,0.75
2023-04-23T21:36:38.310Z,0.60
2023-04-23T21:39:04.725Z,0.80
2023-04-23T21:41:31.213Z,0.80
2023-04-23T21:43:57.724Z,1.10
2023-04-23T21:46:24.874Z,0.70
2023-04-23T21:48:53.534Z,0.60
2023-04-23T21:51:22.359Z,0.70
2023-04-23T21:53:49.149Z,0.80
2023-04-23T21:56:16.316Z,0.50
2023-04-23T21:58:43.587Z,0.60
2023-04-23T22:01:10.311Z,0.60
2023-04-23T22:03:39.376Z,0.80
2023-04-23T22:06:06.837Z,0.60
2023-04-23T22:08:33.813Z,0.50
2023-04-23T22:11:00.385Z,0.60
2023-04-23T22:13:26.852Z,0.50
2023-04-23T22:15:53.265Z,0.50
2023-04-23T22:18:19.666Z,0.50
2023-04-23T22:20:49.288Z,0.52
2023-04-23T22:23:15.744Z,0.60
2023-04-23T22:25:42.532Z,0.68
2023-04-23T22:28:09.007Z,0.50
2023-04-23T22:30:35.696Z,0.50
2023-04-23T22:33:02.172Z,0.60
2023-04-23T22:35:28.864Z,0.50
2023-04-23T22:37:55.685Z,0.60
2023-04-23T22:40:22.240Z,0.55
2023-04-23T22:42:48.665Z,0.50
2023-04-23T22:45:15.068Z,0.50
2023-04-23T22:47:41.946Z,0.60
2023-04-23T22:50:09.014Z,0.80
2023-04-23T22:52:35.624Z,0.60
2023-04-23T22:55:02.082Z,0.60
2023-04-23T22:57:28.628Z,0.55
2023-04-23T22:59:55.130Z,0.50
2023-04-23T23:02:21.614Z,0.60
2023-04-23T23:04:48.091Z,0.52
2023-04-23T23:07:14.983Z,0.60
2023-04-23T23:09:41.557Z,0.40
2023-04-23T23:12:08.843Z,0.50
2023-04-23T23:14:37.803Z,0.57
2023-04-23T23:17:07.241Z,0.50
2023-04-23T23:19:33.686Z,0.40
2023-04-23T23:22:00.224Z,0.68
2023-04-23T23:24:26.749Z,0.60
2023-04-23T23:26:53.205Z,0.60
2023-04-23T23:29:19.657Z,0.45
2023-04-23T23:31:46.386Z,0.50
2023-04-23T23:34:12.927Z,0.52
2023-04-23T23:36:39.443Z,0.63
2023-04-23T23:39:06.593Z,0.50
2023-04-23T23:41:33.252Z,0.55
2023-04-23T23:43:59.657Z,0.90
2023-04-23T23:46:26.136Z,0.55
2023-04-23T23:48:52.620Z,0.55
2023-04-23T23:51:19.096Z,0.50
2023-04-23T23:53:45.712Z,0.60
2023-04-23T23:56:12.168Z,0.55
2023-04-23T23:58:38.587Z,0.60
